createdAt,value
2023-04-02T00:01:19.316Z,10.50
2023-04-02T00:03:46.074Z,9.63
2023-04-02T00:06:32.856Z,8.65
2023-04-02T00:09:17.213Z,7.22
2023-04-02T00:11:46.606Z,7.38
2023-04-02T00:14:33.894Z,4.28
2023-04-02T00:17:02.728Z,4.90
2023-04-02T00:19:33.474Z,8.38
2023-04-02T00:22:00.686Z,7.70
2023-04-02T00:24:27.413Z,8.05
2023-04-02T00:26:55.459Z,5.65
2023-04-02T00:29:22.323Z,7.63
2023-04-02T00:31:54.025Z,8.27
2023-04-02T00:34:33.979Z,3.30
2023-04-02T00:37:01.906Z,9.10
2023-04-02T00:39:30.368Z,7.45
2023-04-02T00:42:07.772Z,5.53
2023-04-02T00:44:37.912Z,7.32
2023-04-02T00:47:12.204Z,7.00
2023-04-02T00:49:40.627Z,6.40
2023-04-02T00:52:12.792Z,4.93
2023-04-02T00:54:44.130Z,5.78
2023-04-02T00:57:16.541Z,4.43
2023-04-02T00:59:54.917Z,5.97
2023-04-02T01:02:26.506Z,6.60
2023-04-02T01:04:59.048Z,5.75
2023-04-02T01:07:41.092Z,5.18
2023-04-02T01:10:27.174Z,7.15
2023-04-02T01:13:03.115Z,7.07
2023-04-02T01:15:36.798Z,6.70
2023-04-02T01:18:09.719Z,6.72
2023-04-02T01:20:51.684Z,9.50
2023-04-02T01:23:24.310Z,7.32
2023-04-02T01:25:54.636Z,6.18
2023-04-02T01:28:32.020Z,8.27
2023-04-02T01:31:01.856Z,5.22
2023-04-02T01:33:30.965Z,5.90
2023-04-02T01:36:31.377Z,8.20
2023-04-02T01:39:10.656Z,6.38
2023-04-02T01:41:50.158Z,5.43
2023-04-02T01:44:39.132Z,5.40
2023-04-02T01:47:10.508Z,7.65
2023-04-02T01:49:37.314Z,7.65
2023-04-02T01:52:04.815Z,4.78
2023-04-02T01:54:34.227Z,3.20
2023-04-02T01:57:01.023Z,7.00
2023-04-02T01:59:28.963Z,1.05
2023-04-02T02:02:06.956Z,9.57
2023-04-02T02:04:37.079Z,7.22
2023-04-02T02:07:10.336Z,7.47
2023-04-02T02:09:37.429Z,6.85
2023-04-02T02:12:04.677Z,3.88
2023-04-02T02:14:31.831Z,9.13
2023-04-02T02:17:02.126Z,4.28
2023-04-02T02:19:34.553Z,5.03
2023-04-02T02:22:16.276Z,5.45
2023-04-02T02:24:43.023Z,6.22
2023-04-02T02:27:31.143Z,6.35
2023-04-02T02:30:36.608Z,8.57
2023-04-02T02:33:14.466Z,7.70
2023-04-02T02:35:48.643Z,7.43
2023-04-02T02:38:34.116Z,6.15
2023-04-02T02:41:27.759Z,6.63
2023-04-02T02:44:19.673Z,5.05
2023-04-02T02:46:51.446Z,5.93
2023-04-02T02:49:22.579Z,8.70
2023-04-02T02:52:17.260Z,6.45
2023-04-02T02:55:13.384Z,6.60
2023-04-02T02:58:03.321Z,6.93
2023-04-02T03:00:36.215Z,6.18
2023-04-02T03:03:06.660Z,5.28
2023-04-02T03:05:34.085Z,5.63
2023-04-02T03:08:15.019Z,7.18
2023-04-02T03:10:53.506Z,8.23
2023-04-02T03:13:24.372Z,10.35
2023-04-02T03:16:13.165Z,6.75
2023-04-02T03:18:54.620Z,6.13
2023-04-02T03:21:33.291Z,8.48
2023-04-02T03:24:03.922Z,7.80
2023-04-02T03:26:34.988Z,12.73
2023-04-02T03:29:12.259Z,13.40
2023-04-02T03:31:42.209Z,12.82
2023-04-02T03:34:33.389Z,9.40
2023-04-02T03:37:07.945Z,11.80
2023-04-02T03:39:42.536Z,5.53
2023-04-02T03:42:16.260Z,11.98
2023-04-02T03:44:43.696Z,8.60
2023-04-02T03:47:14.652Z,11.73
2023-04-02T03:50:06.580Z,9.85
2023-04-02T03:52:36.643Z,12.55
2023-04-02T03:55:17.619Z,16.15
2023-04-02T03:58:16.496Z,11.52
2023-04-02T04:01:12.478Z,12.05
2023-04-02T04:03:42.714Z,13.52
2023-04-02T04:06:16.925Z,19.08
2023-04-02T04:08:54.744Z,6.78
2023-04-02T04:11:30.046Z,13.10
2023-04-02T04:14:01.721Z,10.60
2023-04-02T04:16:43.048Z,14.25
2023-04-02T04:19:21.901Z,9.35
2023-04-02T04:21:49.162Z,15.93
2023-04-02T04:24:25.720Z,13.18
2023-04-02T04:27:04.207Z,15.10
2023-04-02T04:29:49.201Z,18.95
2023-04-02T04:32:16.950Z,21.85
2023-04-02T04:34:51.432Z,17.65
2023-04-02T04:37:26.359Z,16.65
2023-04-02T04:40:25.504Z,13.90
2023-04-02T04:43:00.003Z,16.30
2023-04-02T04:45:42.008Z,18.95
2023-04-02T04:48:21.900Z,16.27
2023-04-02T04:50:56.084Z,10.15
2023-04-02T04:53:26.531Z,22.15
2023-04-02T04:56:16.130Z,14.88
2023-04-02T04:58:50.916Z,13.23
2023-04-02T05:01:46.664Z,12.90
2023-04-02T05:04:19.514Z,5.65
2023-04-02T05:06:52.321Z,9.98
2023-04-02T05:09:44.240Z,16.40
2023-04-02T05:12:17.427Z,12.55
2023-04-02T05:14:51.092Z,5.70
2023-04-02T05:17:23.761Z,15.10
2023-04-02T05:19:56.893Z,14.82
2023-04-02T05:22:40.861Z,9.02
2023-04-02T05:25:20.842Z,15.02
2023-04-02T05:28:18.777Z,20.23
2023-04-02T05:30:49.514Z,17.90
2023-04-02T05:33:27.620Z,13.77
2023-04-02T05:36:03.381Z,14.63
2023-04-02T05:38:35.764Z,12.50
2023-04-02T05:41:26.849Z,11.68
2023-04-02T05:44:18.691Z,15.93
2023-04-02T05:46:56.048Z,18.13
2023-04-02T05:49:31.274Z,13.73
2023-04-02T05:52:01.137Z,13.02
2023-04-02T05:54:40.006Z,13.27
2023-04-02T05:57:14.983Z,16.50
2023-04-02T05:59:45.355Z,17.85
2023-04-02T06:02:23.179Z,21.90
2023-04-02T06:05:15.872Z,12.73
2023-04-02T06:07:50.849Z,10.07
2023-04-02T06:10:41.970Z,3.53
2023-04-02T06:13:16.936Z,18.67
2023-04-02T06:15:47.187Z,10.77
2023-04-02T06:18:28.720Z,11.50
2023-04-02T06:20:56.694Z,7.80
2023-04-02T06:23:31.008Z,9.30
2023-04-02T06:26:27.971Z,12.85
2023-04-02T06:29:18.997Z,10.85
2023-04-02T06:31:51.838Z,9.63
2023-04-02T06:34:22.021Z,3.05
2023-04-02T06:37:03.419Z,6.22
2023-04-02T06:39:32.029Z,8.43
2023-04-02T06:42:11.717Z,3.55
2023-04-02T06:44:58.500Z,6.53
2023-04-02T06:47:50.110Z,9.07
2023-04-02T06:50:31.242Z,8.43
2023-04-02T06:53:01.670Z,8.48
2023-04-02T06:55:46.556Z,10.80
2023-04-02T06:58:17.014Z,6.03
2023-04-02T07:00:48.758Z,4.25
2023-04-02T07:03:28.210Z,7.82
2023-04-02T07:05:57.278Z,10.52
2023-04-02T07:08:26.622Z,8.93
2023-04-02T07:10:53.479Z,8.82
2023-04-02T07:13:22.864Z,7.90
2023-04-02T07:15:54.554Z,9.55
2023-04-02T07:18:27.352Z,9.45
2023-04-02T07:20:54.126Z,9.30
2023-04-02T07:23:21.392Z,3.67
2023-04-02T07:25:50.321Z,5.07
2023-04-02T07:28:17.875Z,7.72
2023-04-02T07:30:44.797Z,14.73
2023-04-02T07:33:19.239Z,14.73
2023-04-02T07:35:46.171Z,10.73
2023-04-02T07:38:12.804Z,13.13
2023-04-02T07:40:39.713Z,12.75
2023-04-02T07:43:06.438Z,10.98
2023-04-02T07:45:33.322Z,9.15
2023-04-02T07:48:12.423Z,10.98
2023-04-02T07:50:39.081Z,5.50
2023-04-02T07:53:07.080Z,12.65
2023-04-02T07:55:34.088Z,3.85
2023-04-02T07:58:00.955Z,6.97
2023-04-02T08:00:29.035Z,8.57
2023-04-02T08:02:56.311Z,6.35
2023-04-02T08:05:23.510Z,11.95
2023-04-02T08:07:55.255Z,8.85
2023-04-02T08:10:22.382Z,10.30
2023-04-02T08:12:49.708Z,7.80
2023-04-02T08:15:16.792Z,11.18
2023-04-02T08:17:43.898Z,15.27
2023-04-02T08:20:18.983Z,7.15
2023-04-02T08:22:46.715Z,5.78
2023-04-02T08:25:13.461Z,4.22
2023-04-02T08:27:40.062Z,5.40
2023-04-02T08:30:07.903Z,6.78
2023-04-02T08:32:35.203Z,7.28
2023-04-02T08:35:02.652Z,9.30
2023-04-02T08:37:29.387Z,5.88
2023-04-02T08:39:56.170Z,10.23
2023-04-02T08:42:41.033Z,8.77
2023-04-02T08:45:24.254Z,5.57
2023-04-02T08:47:55.233Z,11.35
2023-04-02T08:50:34.677Z,7.57
2023-04-02T08:53:05.339Z,7.55
2023-04-02T08:55:39.849Z,10.38
2023-04-02T08:58:18.533Z,5.20
2023-04-02T09:00:47.382Z,4.40
2023-04-02T09:03:21.736Z,5.82
2023-04-02T09:05:49.907Z,6.57
2023-04-02T09:08:20.072Z,3.17
2023-04-02T09:11:09.422Z,6.63
2023-04-02T09:13:40.936Z,5.97
2023-04-02T09:16:07.711Z,7.47
2023-04-02T09:18:34.455Z,11.05
2023-04-02T09:21:05.005Z,5.15
2023-04-02T09:23:31.862Z,3.72
2023-04-02T09:26:04.548Z,4.95
2023-04-02T09:28:32.013Z,2.67
2023-04-02T09:31:18.949Z,6.85
2023-04-02T09:33:48.920Z,6.68
2023-04-02T09:36:39.016Z,4.28
2023-04-02T09:39:23.315Z,2.83
2023-04-02T09:42:02.912Z,1.23
2023-04-02T09:44:32.489Z,6.40
2023-04-02T09:47:03.927Z,4.43
2023-04-02T09:49:40.710Z,3.97
2023-04-02T09:52:16.471Z,2.80
2023-04-02T09:54:43.384Z,5.00
2023-04-02T09:57:18.707Z,5.93
2023-04-02T09:59:45.441Z,6.50
2023-04-02T10:02:28.821Z,4.35
2023-04-02T10:04:56.149Z,5.35
2023-04-02T10:07:55.539Z,4.30
2023-04-02T10:10:52.807Z,5.47
2023-04-02T10:13:29.417Z,2.40
2023-04-02T10:16:11.505Z,5.90
2023-04-02T10:18:59.901Z,5.38
2023-04-02T10:21:33.569Z,4.60
2023-04-02T10:24:00.334Z,9.60
2023-04-02T10:26:51.332Z,5.07
2023-04-02T10:29:52.035Z,5.80
2023-04-02T10:32:25.567Z,3.67
2023-04-02T10:35:02.985Z,4.55
2023-04-02T10:38:00.667Z,4.05
2023-04-02T10:40:35.593Z,4.57
2023-04-02T10:43:24.023Z,5.65
2023-04-02T10:46:12.877Z,2.40
2023-04-02T10:48:53.727Z,3.42
2023-04-02T10:51:29.750Z,3.03
2023-04-02T10:54:17.831Z,3.58
2023-04-02T10:56:50.973Z,4.88
2023-04-02T10:59:33.714Z,4.15
2023-04-02T11:02:02.747Z,4.60
2023-04-02T11:04:37.915Z,4.72
2023-04-02T11:07:14.591Z,5.93
2023-04-02T11:09:43.586Z,6.45
2023-04-02T11:12:34.550Z,2.55
2023-04-02T11:15:02.342Z,3.42
2023-04-02T11:17:29.048Z,3.55
2023-04-02T11:20:43.295Z,3.83
2023-04-02T11:23:13.943Z,3.30
2023-04-02T11:25:41.950Z,4.20
2023-04-02T11:28:27.984Z,4.80
2023-04-02T11:30:55.903Z,6.47
2023-04-02T11:33:38.398Z,8.13
2023-04-02T11:36:44.711Z,13.30
2023-04-02T11:39:17.376Z,2.58
2023-04-02T11:42:31.046Z,3.28
2023-04-02T11:45:23.782Z,6.47
2023-04-02T11:48:00.678Z,2.92
2023-04-02T11:50:31.929Z,6.50
2023-04-02T11:53:04.937Z,3.53
2023-04-02T11:55:33.705Z,5.63
2023-04-02T11:58:28.404Z,2.22
2023-04-02T12:01:20.105Z,3.95
2023-04-02T12:04:05.721Z,3.42
2023-04-02T12:06:47.559Z,2.78
2023-04-02T12:09:23.681Z,5.75
2023-04-02T12:11:52.260Z,3.35
2023-04-02T12:14:37.767Z,5.05
2023-04-02T12:17:08.499Z,5.18
2023-04-02T12:19:36.917Z,6.40
2023-04-02T12:22:03.706Z,4.97
2023-04-02T12:24:31.448Z,4.78
2023-04-02T12:27:17.869Z,3.97
2023-04-02T12:29:44.547Z,4.35
2023-04-02T12:32:29.625Z,2.80
2023-04-02T12:35:04.642Z,8.63
2023-04-02T12:37:31.645Z,3.00
2023-04-02T12:39:59.384Z,4.40
2023-04-02T12:42:34.400Z,3.42
2023-04-02T12:45:01.557Z,2.33
2023-04-02T12:47:29.411Z,3.30
2023-04-02T12:49:57.726Z,3.15
2023-04-02T12:52:29.826Z,3.15
2023-04-02T12:54:58.833Z,5.75
2023-04-02T12:57:25.434Z,2.88
2023-04-02T13:00:21.774Z,3.72
2023-04-02T13:02:59.524Z,5.97
2023-04-02T13:05:38.202Z,4.93
2023-04-02T13:08:05.796Z,4.57
2023-04-02T13:10:32.895Z,2.95
2023-04-02T13:13:03.626Z,4.10
2023-04-02T13:15:32.513Z,3.80
2023-04-02T13:18:22.622Z,3.28
2023-04-02T13:21:21.606Z,3.58
2023-04-02T13:23:48.509Z,3.58
2023-04-02T13:26:26.360Z,6.93
2023-04-02T13:29:00.355Z,4.72
2023-04-02T13:31:28.251Z,7.85
2023-04-02T13:33:55.006Z,5.35
2023-04-02T13:36:21.794Z,6.75
2023-04-02T13:38:48.483Z,4.13
2023-04-02T13:41:29.033Z,6.60
2023-04-02T13:43:58.062Z,4.78
2023-04-02T13:46:27.669Z,4.28
2023-04-02T13:48:55.348Z,2.00
2023-04-02T13:51:46.389Z,3.95
2023-04-02T13:54:33.728Z,4.32
2023-04-02T13:57:01.325Z,4.63
2023-04-02T13:59:28.191Z,4.22
2023-04-02T14:01:57.976Z,5.60
2023-04-02T14:04:27.592Z,5.82
2023-04-02T14:07:09.375Z,4.35
2023-04-02T14:10:04.388Z,5.40
2023-04-02T14:12:39.072Z,4.00
2023-04-02T14:15:13.062Z,2.80
2023-04-02T14:17:58.392Z,4.10
2023-04-02T14:20:51.537Z,3.88
2023-04-02T14:23:49.435Z,3.42
2023-04-02T14:26:28.060Z,4.13
2023-04-02T14:29:20.432Z,5.13
2023-04-02T14:32:27.112Z,4.18
2023-04-02T14:35:03.366Z,2.20
2023-04-02T14:37:46.415Z,2.38
2023-04-02T14:40:40.438Z,2.47
2023-04-02T14:43:26.283Z,3.78
2023-04-02T14:46:02.302Z,2.97
2023-04-02T14:48:55.946Z,3.03
2023-04-02T14:51:37.499Z,3.72
2023-04-02T14:54:21.653Z,5.47
2023-04-02T14:56:53.159Z,5.25
2023-04-02T14:59:31.789Z,1.67
2023-04-02T15:02:12.733Z,4.13
2023-04-02T15:04:44.423Z,2.47
2023-04-02T15:07:19.595Z,4.07
2023-04-02T15:09:53.719Z,3.88
2023-04-02T15:12:24.130Z,4.13
2023-04-02T15:14:54.966Z,5.40
2023-04-02T15:17:21.740Z,5.10
2023-04-02T15:19:55.272Z,3.22
2023-04-02T15:22:55.779Z,4.05
2023-04-02T15:25:41.004Z,6.40
2023-04-02T15:28:30.223Z,6.20
2023-04-02T15:30:58.987Z,2.47
2023-04-02T15:33:40.780Z,2.55
2023-04-02T15:36:18.462Z,3.60
2023-04-02T15:38:48.104Z,4.85
2023-04-02T15:41:23.540Z,2.47
2023-04-02T15:44:13.648Z,4.68
2023-04-02T15:47:04.128Z,4.75
2023-04-02T15:49:37.929Z,3.58
2023-04-02T15:52:10.538Z,4.03
2023-04-02T15:54:37.548Z,5.30
2023-04-02T15:57:15.794Z,2.17
2023-04-02T16:00:11.559Z,4.57
2023-04-02T16:03:17.282Z,2.38
2023-04-02T16:06:16.922Z,6.68
2023-04-02T16:09:04.569Z,4.00
2023-04-02T16:11:31.558Z,3.55
2023-04-02T16:14:15.501Z,6.55
2023-04-02T16:16:42.816Z,6.95
2023-04-02T16:19:20.967Z,5.00
2023-04-02T16:21:53.152Z,5.93
2023-04-02T16:24:19.975Z,2.97
2023-04-02T16:27:20.982Z,4.63
2023-04-02T16:30:22.464Z,9.95
2023-04-02T16:33:17.595Z,2.80
2023-04-02T16:35:53.871Z,4.95
2023-04-02T16:38:51.530Z,4.53
2023-04-02T16:41:34.906Z,3.65
2023-04-02T16:44:33.588Z,4.43
2023-04-02T16:47:25.728Z,2.75
2023-04-02T16:50:14.365Z,3.67
2023-04-02T16:53:06.809Z,3.53
2023-04-02T16:56:11.337Z,4.70
2023-04-02T16:58:37.964Z,5.80
2023-04-02T17:01:16.442Z,3.50
2023-04-02T17:04:24.336Z,3.90
2023-04-02T17:07:11.472Z,4.43
2023-04-02T17:09:48.835Z,5.50
2023-04-02T17:12:21.330Z,3.65
2023-04-02T17:15:07.354Z,4.22
2023-04-02T17:17:38.173Z,4.22
2023-04-02T17:20:28.546Z,3.45
2023-04-02T17:22:55.850Z,3.88
2023-04-02T17:25:32.408Z,3.70
2023-04-02T17:27:59.148Z,5.10
2023-04-02T17:30:42.403Z,4.63
2023-04-02T17:33:17.548Z,3.05
2023-04-02T17:36:05.631Z,4.47
2023-04-02T17:39:25.546Z,5.50
2023-04-02T17:42:42.642Z,8.32
2023-04-02T17:45:16.955Z,5.50
2023-04-02T17:47:53.036Z,5.38
2023-04-02T17:50:47.643Z,4.75
2023-04-02T17:53:47.405Z,9.10
2023-04-02T17:56:21.982Z,7.43
2023-04-02T17:59:06.945Z,7.65
2023-04-02T18:01:51.930Z,7.93
2023-04-02T18:04:27.737Z,11.15
2023-04-02T18:07:24.760Z,5.32
2023-04-02T18:10:01.645Z,6.78
2023-04-02T18:12:57.126Z,6.63
2023-04-02T18:16:02.107Z,12.63
2023-04-02T18:18:50.664Z,5.68
2023-04-02T18:21:43.578Z,6.53
2023-04-02T18:24:42.665Z,4.47
2023-04-02T18:27:26.346Z,5.30
2023-04-02T18:29:56.841Z,9.43
2023-04-02T18:32:51.576Z,16.75
2023-04-02T18:35:35.475Z,21.92
2023-04-02T18:38:13.527Z,24.10
2023-04-02T18:40:58.359Z,20.20
2023-04-02T18:43:55.851Z,21.35
2023-04-02T18:46:49.623Z,19.52
2023-04-02T18:49:30.946Z,18.73
2023-04-02T18:52:01.347Z,17.17
2023-04-02T18:54:44.493Z,23.55
2023-04-02T18:57:30.603Z,22.25
2023-04-02T19:00:33.810Z,17.55
2023-04-02T19:03:05.749Z,16.00
2023-04-02T19:05:51.451Z,22.88
2023-04-02T19:08:38.355Z,11.02
2023-04-02T19:11:13.754Z,10.88
2023-04-02T19:13:40.794Z,13.65
2023-04-02T19:16:18.256Z,18.50
2023-04-02T19:18:44.865Z,17.30
2023-04-02T19:21:18.265Z,24.10
2023-04-02T19:23:56.897Z,20.48
2023-04-02T19:26:28.020Z,21.05
2023-04-02T19:29:12.842Z,24.05
2023-04-02T19:31:54.562Z,25.60
2023-04-02T19:34:30.430Z,24.27
2023-04-02T19:37:29.965Z,22.08
2023-04-02T19:40:07.726Z,24.48
2023-04-02T19:42:41.659Z,28.25
2023-04-02T19:45:32.065Z,24.38
2023-04-02T19:48:01.029Z,26.75
2023-04-02T19:50:28.345Z,28.52
2023-04-02T19:52:55.051Z,29.25
2023-04-02T19:55:21.680Z,31.42
2023-04-02T19:57:48.420Z,30.05
2023-04-02T20:00:15.773Z,42.15
2023-04-02T20:02:42.554Z,38.47
2023-04-02T20:05:10.446Z,35.03
2023-04-02T20:07:37.280Z,31.73
2023-04-02T20:10:04.061Z,30.02
2023-04-02T20:12:31.051Z,28.60
2023-04-02T20:14:57.694Z,22.65
2023-04-02T20:17:24.306Z,25.80
2023-04-02T20:19:51.012Z,23.95
2023-04-02T20:22:19.045Z,23.70
2023-04-02T20:24:45.913Z,24.30
2023-04-02T20:27:12.632Z,31.95
2023-04-02T20:29:41.453Z,18.23
2023-04-02T20:32:09.714Z,17.15
2023-04-02T20:34:36.889Z,21.23
2023-04-02T20:37:03.809Z,40.30
2023-04-02T20:39:30.552Z,150.60
2023-04-02T20:42:01.255Z,56.47
2023-04-02T20:47:14.713Z,18.80
2023-04-02T20:49:41.486Z,17.10
2023-04-02T20:52:11.788Z,16.00
2023-04-02T20:54:38.479Z,21.90
2023-04-02T20:57:05.408Z,19.27
2023-04-02T20:59:32.155Z,21.98
2023-04-02T21:01:58.930Z,17.88
2023-04-02T21:04:27.742Z,21.35
2023-04-02T21:06:57.023Z,18.02
2023-04-02T21:09:23.741Z,16.75
2023-04-02T21:11:50.381Z,20.23
2023-04-02T21:14:17.994Z,21.13
2023-04-02T21:16:44.777Z,25.95
2023-04-02T21:19:11.500Z,22.60
2023-04-02T21:21:39.347Z,17.30
2023-04-02T21:24:07.724Z,28.50
2023-04-02T21:26:37.508Z,17.88
2023-04-02T21:29:04.837Z,15.35
2023-04-02T21:31:35.907Z,14.57
2023-04-02T21:34:03.086Z,14.52
2023-04-02T21:36:35.551Z,18.30
2023-04-02T21:39:10.037Z,22.67
2023-04-02T21:41:42.672Z,20.73
2023-04-02T21:44:12.829Z,21.80
2023-04-02T21:46:42.376Z,16.67
2023-04-02T21:49:11.079Z,19.50
2023-04-02T21:51:39.336Z,13.45
2023-04-02T21:54:06.576Z,14.35
2023-04-02T21:56:37.996Z,19.88
2023-04-02T21:59:06.161Z,16.75
2023-04-02T22:01:35.424Z,12.27
2023-04-02T22:04:03.888Z,20.08
2023-04-02T22:06:32.995Z,17.00
2023-04-02T22:09:01.551Z,19.00
2023-04-02T22:11:34.536Z,21.02
2023-04-02T22:14:03.397Z,20.45
2023-04-02T22:16:31.562Z,18.45
2023-04-02T22:19:01.030Z,16.80
2023-04-02T22:21:28.392Z,13.70
2023-04-02T22:23:55.399Z,14.20
2023-04-02T22:26:23.364Z,13.52
2023-04-02T22:28:52.422Z,17.95
2023-04-02T22:31:24.651Z,16.80
2023-04-02T22:33:52.137Z,28.42
2023-04-02T22:36:19.428Z,21.88
2023-04-02T22:38:46.346Z,18.50
2023-04-02T22:41:14.703Z,17.05
2023-04-02T22:43:43.810Z,20.27
2023-04-02T22:46:12.690Z,24.08
2023-04-02T22:48:39.941Z,17.98
2023-04-02T22:51:07.805Z,21.58
2023-04-02T22:53:35.275Z,22.42
2023-04-02T22:56:13.797Z,20.27
2023-04-02T22:58:41.351Z,21.05
2023-04-02T23:01:15.054Z,15.55
2023-04-02T23:03:41.727Z,15.45
2023-04-02T23:06:10.953Z,10.40
2023-04-02T23:08:38.477Z,20.58
2023-04-02T23:11:11.212Z,10.25
2023-04-02T23:13:38.810Z,10.10
2023-04-02T23:16:07.801Z,10.68
2023-04-02T23:18:37.724Z,8.27
2023-04-02T23:21:05.453Z,10.23
2023-04-02T23:23:32.571Z,8.27
2023-04-02T23:26:10.620Z,9.23
2023-04-02T23:28:38.454Z,8.10
2023-04-02T23:31:07.614Z,7.47
2023-04-02T23:33:35.209Z,6.30
2023-04-02T23:36:18.673Z,5.53
2023-04-02T23:38:48.446Z,8.90
2023-04-02T23:41:16.281Z,8.70
2023-04-02T23:43:43.406Z,5.53
2023-04-02T23:46:10.300Z,5.78
2023-04-02T23:48:36.983Z,6.00
2023-04-02T23:51:03.984Z,6.45
2023-04-02T23:53:30.798Z,7.25
2023-04-02T23:55:57.452Z,3.47
2023-04-02T23:58:24.094Z,4.35
